createdAt,value
2019-02-28T00:10:20.075Z,54.83
2019-02-28T00:26:03.950Z,54.81
2019-02-28T01:05:39.193Z,54.85
2019-02-28T01:18:00.427Z,55.00
2019-02-28T01:39:06.752Z,55.04
2019-02-28T02:06:31.310Z,55.13
2019-02-28T03:41:07.662Z,55.05
2019-02-28T04:02:22.224Z,55.05
2019-02-28T04:46:23.826Z,55.06
2019-02-28T05:59:50.042Z,55.05
2019-02-28T06:28:06.723Z,55.10
2019-02-28T06:59:47.545Z,55.56
2019-02-28T13:35:32.821Z,55.71
2019-02-28T14:01:46.926Z,55.18
2019-02-28T14:47:56.975Z,53.78
2019-02-28T15:05:08.753Z,53.84
2019-02-28T18:09:51.433Z,51.97
2019-02-28T18:15:45.940Z,52.00
2019-02-28T18:36:31.086Z,51.98
2019-02-28T18:42:55.966Z,51.95
2019-02-28T18:49:31.116Z,51.94
2019-02-28T18:52:40.053Z,51.89
2019-02-28T18:58:16.735Z,51.88
2019-02-28T19:04:42.249Z,51.87
2019-02-28T19:07:14.873Z,51.87
2019-02-28T19:10:18.753Z,51.87
2019-02-28T19:13:26.866Z,51.85
2019-02-28T19:16:08.900Z,51.85
2019-02-28T19:19:19.024Z,51.84
2019-02-28T19:22:13.154Z,51.87
2019-02-28T19:25:18.385Z,51.86
2019-02-28T19:28:02.134Z,51.87
2019-02-28T19:31:10.301Z,51.88
2019-02-28T19:33:49.113Z,51.89
2019-02-28T19:36:30.747Z,51.90
2019-02-28T19:39:05.817Z,51.88
2019-02-28T19:41:38.106Z,51.90
2019-02-28T19:44:25.690Z,51.92
2019-02-28T19:47:20.257Z,51.94
2019-02-28T19:50:15.559Z,51.95
2019-02-28T19:52:59.408Z,51.99
2019-02-28T19:55:49.214Z,51.97
2019-02-28T19:58:31.088Z,52.00
2019-02-28T20:01:08.895Z,52.05
2019-02-28T20:04:01.609Z,52.08
2019-02-28T20:06:46.148Z,52.11
2019-02-28T20:09:23.467Z,52.12
2019-02-28T20:12:01.928Z,52.10
2019-02-28T20:14:39.610Z,52.11
2019-02-28T20:17:21.757Z,52.10
2019-02-28T20:19:55.698Z,52.13
2019-02-28T20:22:37.263Z,52.13
2019-02-28T20:25:14.279Z,52.15
2019-02-28T20:27:48.507Z,52.12
2019-02-28T20:30:35.079Z,52.14
2019-02-28T20:33:22.057Z,52.17
2019-02-28T20:36:12.312Z,52.19
2019-02-28T20:39:17.581Z,52.24
2019-02-28T20:41:54.127Z,52.26
2019-02-28T20:44:37.753Z,52.26
2019-02-28T20:47:08.960Z,52.28
2019-02-28T20:50:01.336Z,52.26
2019-02-28T20:53:08.425Z,52.24
2019-02-28T20:55:44.584Z,52.19
2019-02-28T20:58:23.004Z,52.19
2019-02-28T21:01:12.992Z,52.20
2019-02-28T21:07:08.788Z,52.13
2019-02-28T21:09:58.764Z,52.19
2019-02-28T21:12:58.250Z,52.15
2019-02-28T21:19:02.641Z,52.12
2019-02-28T21:21:24.212Z,52.13
2019-02-28T21:24:19.886Z,52.14
2019-02-28T21:26:44.444Z,52.16
2019-02-28T21:29:16.886Z,52.17
2019-02-28T21:31:51.886Z,52.18
2019-02-28T21:34:35.068Z,52.20
2019-02-28T21:37:21.355Z,52.19
2019-02-28T21:40:14.983Z,52.20
2019-02-28T21:43:14.322Z,52.20
2019-02-28T21:45:55.229Z,52.21
2019-02-28T21:48:56.944Z,52.26
2019-02-28T21:52:12.355Z,52.29
2019-02-28T21:55:03.298Z,52.30
2019-02-28T21:57:48.173Z,52.33
2019-02-28T22:00:32.110Z,52.38
2019-02-28T22:03:24.376Z,52.41
2019-02-28T22:09:21.943Z,52.47
2019-02-28T22:14:56.367Z,52.49
2019-02-28T22:17:25.653Z,52.49
2019-02-28T22:20:02.555Z,52.54
2019-02-28T22:22:38.030Z,52.57
2019-02-28T22:25:33.424Z,52.55
2019-02-28T22:28:44.368Z,52.55
2019-02-28T22:31:59.081Z,52.56
2019-02-28T22:34:56.306Z,52.55
2019-02-28T22:37:34.589Z,52.54
2019-02-28T22:40:21.562Z,52.53
2019-02-28T22:43:13.519Z,52.48
2019-02-28T22:45:54.175Z,52.45
2019-02-28T22:49:34.983Z,52.45
2019-02-28T22:52:12.630Z,52.44
2019-02-28T22:55:00.777Z,52.40
2019-02-28T22:58:28.446Z,52.40
2019-02-28T23:01:05.766Z,52.46
2019-02-28T23:04:19.879Z,52.44
2019-02-28T23:06:48.788Z,52.40
2019-02-28T23:09:55.018Z,52.38
2019-02-28T23:12:37.240Z,52.38
2019-02-28T23:15:09.758Z,52.41
2019-02-28T23:17:54.564Z,52.48
2019-02-28T23:20:32.192Z,52.51
2019-02-28T23:23:44.279Z,52.54
2019-02-28T23:26:45.289Z,52.59
2019-02-28T23:33:15.980Z,52.70
2019-02-28T23:36:16.397Z,52.72
2019-02-28T23:38:59.823Z,52.77
2019-02-28T23:41:38.133Z,52.81
2019-02-28T23:44:40.594Z,52.86
2019-02-28T23:47:39.242Z,52.89
2019-02-28T23:51:09.921Z,52.91
2019-02-28T23:54:39.063Z,52.93
2019-02-28T23:57:15.702Z,52.95
